Time;durP1;ratioP1;P1;durP2;ratioP2;P2;SDS_P1;SDS_P2;PMS_P1;PMS_P2;Temp;Humidity;BMP_temperature;BMP_pressure;BME280_temperature;BME280_humidity;BME280_pressure;Samples;Min_cycle;Max_cycle;Signal;HPM_P1;HPM_P2
2021/06/17 00:01:27;;;;;;;5.57;4.53;;;;;;;;;;5049371;28;20037;-71
2021/06/17 00:03:53;;;;;;;6.55;5.15;;;;;;;;;;5054178;28;20025;-70
2021/06/17 00:06:19;;;;;;;7.55;4.97;;;;;;;;;;5051945;28;20024;-71
2021/06/17 00:08:45;;;;;;;7.83;5.27;;;;;;;;;;5052375;28;20032;-72
2021/06/17 00:11:11;;;;;;;6.03;4.72;;;;;;;;;;5053242;28;20029;-71
2021/06/17 00:13:39;;;;;;;5.87;4.70;;;;;;;;;;5052292;28;20087;-71
2021/06/17 00:16:06;;;;;;;6.70;4.72;;;;;;;;;;5052696;28;20246;-70
2021/06/17 00:18:32;;;;;;;5.53;4.82;;;;;;;;;;5052669;28;20515;-69
2021/06/17 00:20:59;;;;;;;5.03;4.53;;;;;;;;;;5051676;28;20379;-71
2021/06/17 00:23:25;;;;;;;6.82;4.95;;;;;;;;;;5053643;28;20104;-70
2021/06/17 00:25:52;;;;;;;7.38;5.25;;;;;;;;;;5053494;28;20040;-70
2021/06/17 00:28:18;;;;;;;5.32;4.80;;;;;;;;;;5052842;28;20045;-70
2021/06/17 00:30:44;;;;;;;9.87;5.13;;;;;;;;;;5052150;28;20032;-70
2021/06/17 00:33:10;;;;;;;6.82;5.20;;;;;;;;;;5051671;28;20489;-68
2021/06/17 00:35:36;;;;;;;9.30;5.70;;;;;;;;;;5052358;28;20028;-69
2021/06/17 00:38:04;;;;;;;9.63;5.63;;;;;;;;;;5053253;28;20033;-69
2021/06/17 00:40:30;;;;;;;5.30;4.80;;;;;;;;;;5055697;28;20318;-69
2021/06/17 00:42:59;;;;;;;8.18;5.18;;;;;;;;;;5060473;28;20024;-68
2021/06/17 00:45:27;;;;;;;7.40;5.07;;;;;;;;;;5071846;28;20552;-70
2021/06/17 00:47:53;;;;;;;5.82;5.18;;;;;;;;;;5053243;28;20473;-69
2021/06/17 00:50:20;;;;;;;5.70;5.20;;;;;;;;;;5052408;28;20021;-71
2021/06/17 00:52:46;;;;;;;7.03;5.20;;;;;;;;;;5049102;28;20033;-69
2021/06/17 00:55:13;;;;;;;8.10;5.27;;;;;;;;;;5032128;28;20431;-71
2021/06/17 00:57:39;;;;;;;;;;;;;;;;;;5032992;28;20394;-71
2021/06/17 01:00:07;;;;;;;5.55;4.80;;;;;;;;;;5049655;28;19908;-71
2021/06/17 01:02:33;;;;;;;6.53;5.05;;;;;;;;;;5052917;28;20025;-71
2021/06/17 01:04:59;;;;;;;5.53;5.03;;;;;;;;;;5053221;28;20025;-69
2021/06/17 01:07:35;;;;;;;5.65;4.93;;;;;;;;;;5052720;28;20079;-69
2021/06/17 01:10:25;;;;;;;6.40;5.67;;;;;;;;;;5051203;28;20025;-69
2021/06/17 01:13:10;;;;;;;7.53;5.50;;;;;;;;;;5041274;28;20115;-72
2021/06/17 01:15:40;;;;;;;6.47;5.20;;;;;;;;;;5050083;28;20452;-70
2021/06/17 01:18:13;;;;;;;8.25;5.50;;;;;;;;;;5050914;28;20025;-71
2021/06/17 01:20:44;;;;;;;7.88;5.40;;;;;;;;;;5053286;28;20017;-71
2021/06/17 01:23:28;;;;;;;6.65;5.93;;;;;;;;;;5061737;28;20029;-69
2021/06/17 01:25:57;;;;;;;8.07;5.78;;;;;;;;;;5051638;28;20029;-69
2021/06/17 01:28:24;;;;;;;9.82;6.40;;;;;;;;;;5050536;28;20021;-71
2021/06/17 01:30:56;;;;;;;8.27;5.93;;;;;;;;;;5052445;28;20386;-69
2021/06/17 01:33:24;;;;;;;8.68;5.30;;;;;;;;;;5051601;28;20535;-69
2021/06/17 01:35:51;;;;;;;6.10;5.50;;;;;;;;;;5051527;28;20033;-71
2021/06/17 01:38:19;;;;;;;6.75;5.50;;;;;;;;;;5051381;28;20036;-71
2021/06/17 01:40:47;;;;;;;6.00;5.40;;;;;;;;;;5051417;28;20044;-69
2021/06/17 01:43:15;;;;;;;7.90;4.82;;;;;;;;;;5051631;28;20079;-69
2021/06/17 01:45:41;;;;;;;5.97;5.05;;;;;;;;;;5051533;28;20104;-71
2021/06/17 01:48:08;;;;;;;6.17;5.43;;;;;;;;;;5051885;28;20040;-71
2021/06/17 01:50:34;;;;;;;6.60;5.53;;;;;;;;;;5054708;28;20082;-72
2021/06/17 01:53:00;;;;;;;5.90;5.30;;;;;;;;;;5050467;28;20049;-72
2021/06/17 01:55:34;;;;;;;8.38;5.45;;;;;;;;;;5052104;28;20478;-69
2021/06/17 01:58:02;;;;;;;8.18;5.93;;;;;;;;;;5050148;28;20040;-70
2021/06/17 02:00:29;;;;;;;9.38;6.28;;;;;;;;;;5050188;28;20029;-72
2021/06/17 02:02:55;;;;;;;7.53;5.88;;;;;;;;;;5051134;28;20056;-70
2021/06/17 02:05:25;;;;;;;7.37;6.47;;;;;;;;;;5051891;28;20079;-70
2021/06/17 02:07:52;;;;;;;9.90;6.43;;;;;;;;;;5051532;28;20348;-70
2021/06/17 02:10:19;;;;;;;7.70;6.65;;;;;;;;;;5065590;28;20439;-69
2021/06/17 02:12:46;;;;;;;8.23;6.80;;;;;;;;;;5064108;28;20044;-72
2021/06/17 02:15:12;;;;;;;7.90;6.25;;;;;;;;;;5050293;28;20040;-71
2021/06/17 02:17:39;;;;;;;7.40;6.70;;;;;;;;;;5050201;28;20093;-71
2021/06/17 02:20:11;;;;;;;8.35;5.93;;;;;;;;;;5049876;28;20029;-71
2021/06/17 02:22:38;;;;;;;7.10;6.25;;;;;;;;;;5050786;28;20373;-69
2021/06/17 02:25:04;;;;;;;7.40;6.15;;;;;;;;;;5051967;28;20100;-71
2021/06/17 02:27:31;;;;;;;7.38;6.03;;;;;;;;;;5050151;28;20466;-70
2021/06/17 02:30:02;;;;;;;9.98;6.07;;;;;;;;;;5051607;28;20029;-71
2021/06/17 02:32:30;;;;;;;6.80;6.03;;;;;;;;;;5051096;28;20025;-69
2021/06/17 02:34:57;;;;;;;7.10;5.90;;;;;;;;;;5051448;28;20074;-71
2021/06/17 02:37:24;;;;;;;6.78;6.07;;;;;;;;;;5050553;28;20045;-69
2021/06/17 02:39:51;;;;;;;7.13;6.13;;;;;;;;;;5052521;28;20146;-70
2021/06/17 02:42:19;;;;;;;6.80;6.20;;;;;;;;;;5055507;28;20039;-69
2021/06/17 02:44:45;;;;;;;8.60;6.00;;;;;;;;;;5071623;28;20017;-71
2021/06/17 02:47:12;;;;;;;8.10;6.18;;;;;;;;;;5053686;28;20044;-70
2021/06/17 02:49:39;;;;;;;9.60;5.82;;;;;;;;;;5049656;28;20521;-71
2021/06/17 02:52:05;;;;;;;8.35;6.15;;;;;;;;;;5052658;28;20125;-69
2021/06/17 02:54:31;;;;;;;8.18;6.47;;;;;;;;;;5050180;28;20032;-71
2021/06/17 02:57:09;;;;;;;7.97;6.15;;;;;;;;;;5049812;28;20025;-71
2021/06/17 02:59:54;;;;;;;7.40;5.95;;;;;;;;;;5050003;28;20032;-72
2021/06/17 03:02:22;;;;;;;11.70;6.30;;;;;;;;;;5050685;28;20037;-72
2021/06/17 03:05:07;;;;;;;7.18;6.20;;;;;;;;;;5051281;28;20032;-70
2021/06/17 03:07:35;;;;;;;7.63;6.15;;;;;;;;;;5050515;28;20033;-69
2021/06/17 03:10:07;;;;;;;8.00;6.40;;;;;;;;;;5049128;28;20033;-71
2021/06/17 03:12:34;;;;;;;8.88;6.18;;;;;;;;;;5050814;28;20064;-72
2021/06/17 03:15:04;;;;;;;6.72;5.80;;;;;;;;;;5050593;28;20025;-69
2021/06/17 03:17:31;;;;;;;6.95;6.20;;;;;;;;;;5052432;28;20031;-72
2021/06/17 03:20:00;;;;;;;8.43;6.35;;;;;;;;;;5048876;28;20064;-70
2021/06/17 03:22:27;;;;;;;6.88;6.18;;;;;;;;;;5049007;28;20032;-69
2021/06/17 03:24:53;;;;;;;;;;;;;;;;;;5050001;28;20384;-70
2021/06/17 03:27:20;;;;;;;9.02;6.50;;;;;;;;;;5048394;28;19995;-72
2021/06/17 03:29:46;;;;;;;;;;;;;;;;;;5050059;28;20075;-71
2021/06/17 03:32:13;;;;;;;9.60;6.83;;;;;;;;;;5049954;28;19904;-69
2021/06/17 03:34:40;;;;;;;8.50;5.95;;;;;;;;;;5050664;28;20025;-71
2021/06/17 03:37:07;;;;;;;8.40;6.60;;;;;;;;;;5048522;28;20731;-72
2021/06/17 03:39:33;;;;;;;8.32;6.20;;;;;;;;;;5044954;28;20029;-70
2021/06/17 03:42:03;;;;;;;9.23;6.53;;;;;;;;;;5049152;28;20033;-72
2021/06/17 03:44:30;;;;;;;8.63;6.82;;;;;;;;;;5049840;28;20067;-70
2021/06/17 03:46:56;;;;;;;6.78;6.07;;;;;;;;;;5049496;28;20477;-69
2021/06/17 03:49:23;;;;;;;9.45;6.78;;;;;;;;;;5053469;28;20493;-71
2021/06/17 03:51:50;;;;;;;8.20;7.13;;;;;;;;;;5051781;28;20382;-71
2021/06/17 03:54:23;;;;;;;7.32;6.00;;;;;;;;;;5042988;28;20482;-72
2021/06/17 03:56:51;;;;;;;8.27;5.90;;;;;;;;;;5051174;28;20429;-69
2021/06/17 03:59:17;;;;;;;8.02;6.65;;;;;;;;;;5053904;28;20155;-72
2021/06/17 04:01:43;;;;;;;7.93;6.30;;;;;;;;;;5050767;28;20033;-73
2021/06/17 04:04:10;;;;;;;7.45;6.20;;;;;;;;;;5051470;28;20557;-70
2021/06/17 04:06:37;;;;;;;7.07;5.97;;;;;;;;;;5055639;28;20025;-73
2021/06/17 04:09:04;;;;;;;7.28;6.50;;;;;;;;;;5051307;28;20033;-71
2021/06/17 04:11:31;;;;;;;6.53;5.90;;;;;;;;;;4691991;28;9999576;-74
2021/06/17 04:13:57;;;;;;;7.25;6.20;;;;;;;;;;5048109;28;20030;-73
2021/06/17 04:16:26;;;;;;;8.07;5.87;;;;;;;;;;5046074;28;20017;-72
2021/06/17 04:18:53;;;;;;;8.88;6.80;;;;;;;;;;5048552;28;20251;-73
2021/06/17 04:21:20;;;;;;;7.55;6.30;;;;;;;;;;5046884;28;20029;-71
2021/06/17 04:23:48;;;;;;;8.23;6.27;;;;;;;;;;5047035;28;20060;-74
2021/06/17 04:26:17;;;;;;;10.13;5.65;;;;;;;;;;5046715;28;20293;-72
2021/06/17 04:28:43;;;;;;;7.53;5.90;;;;;;;;;;5046395;28;20025;-72
2021/06/17 04:31:10;;;;;;;8.07;5.90;;;;;;;;;;5047186;28;20096;-71
2021/06/17 04:33:36;;;;;;;9.23;5.72;;;;;;;;;;5047223;28;20025;-72
2021/06/17 04:36:04;;;;;;;10.27;6.70;;;;;;;;;;5048732;28;20409;-74
2021/06/17 04:38:30;;;;;;;6.57;5.97;;;;;;;;;;5046134;28;20021;-72
2021/06/17 04:40:56;;;;;;;7.60;6.10;;;;;;;;;;5045728;28;20174;-72
2021/06/17 04:43:23;;;;;;;9.82;5.78;;;;;;;;;;5045862;28;20025;-70
2021/06/17 04:45:53;;;;;;;7.57;6.22;;;;;;;;;;5046137;28;20028;-70
2021/06/17 04:48:22;;;;;;;7.65;5.97;;;;;;;;;;5046826;28;20560;-71
2021/06/17 04:50:48;;;;;;;6.97;5.82;;;;;;;;;;5047257;28;20728;-73
2021/06/17 04:53:15;;;;;;;9.38;5.93;;;;;;;;;;5047911;28;20028;-73
2021/06/17 04:55:43;;;;;;;8.00;6.15;;;;;;;;;;5046533;28;20041;-72
2021/06/17 04:58:09;;;;;;;8.43;5.43;;;;;;;;;;5045489;28;20029;-74
2021/06/17 05:00:36;;;;;;;7.18;6.05;;;;;;;;;;5048628;28;20029;-72
2021/06/17 05:03:02;;;;;;;6.30;5.68;;;;;;;;;;5048410;28;20037;-72
2021/06/17 05:05:28;;;;;;;7.00;6.30;;;;;;;;;;5044395;28;20021;-73
2021/06/17 05:10:52;;;;;;;8.90;6.20;;;;;;;;;;5045734;28;20436;-72
2021/06/17 05:13:22;;;;;;;9.35;5.82;;;;;;;;;;5051750;28;20024;-71
2021/06/17 05:15:49;;;;;;;9.48;6.22;;;;;;;;;;5051720;28;20041;-72
2021/06/17 05:18:18;;;;;;;6.60;5.65;;;;;;;;;;5050947;28;21616;-71
2021/06/17 05:20:44;;;;;;;9.65;6.28;;;;;;;;;;5051361;28;20039;-72
2021/06/17 05:23:13;;;;;;;6.22;5.63;;;;;;;;;;5040739;28;20025;-71
2021/06/17 05:25:40;;;;;;;7.50;6.13;;;;;;;;;;5039657;28;20013;-72
2021/06/17 05:28:06;;;;;;;6.25;5.60;;;;;;;;;;5045263;28;20467;-71
2021/06/17 05:30:32;;;;;;;8.00;6.07;;;;;;;;;;5046267;28;20416;-71
2021/06/17 05:32:58;;;;;;;7.57;6.22;;;;;;;;;;5037351;28;20097;-71
2021/06/17 05:35:25;;;;;;;7.88;5.85;;;;;;;;;;5040511;28;20029;-72
2021/06/17 05:37:51;;;;;;;11.40;5.90;;;;;;;;;;5034148;28;20399;-72
2021/06/17 05:40:18;;;;;;;8.82;6.00;;;;;;;;;;5041327;28;20048;-72
2021/06/17 05:42:44;;;;;;;7.90;5.77;;;;;;;;;;5036803;28;20025;-73
2021/06/17 05:45:10;;;;;;;8.50;5.93;;;;;;;;;;5050954;28;20033;-72
2021/06/17 05:47:37;;;;;;;7.60;6.10;;;;;;;;;;5049039;28;20518;-73
2021/06/17 05:50:04;;;;;;;9.75;6.30;;;;;;;;;;5052002;28;20021;-72
2021/06/17 05:52:30;;;;;;;7.25;5.82;;;;;;;;;;5047568;28;20032;-73
2021/06/17 05:54:56;;;;;;;6.22;5.55;;;;;;;;;;5031685;28;20100;-73
2021/06/17 05:57:22;;;;;;;6.40;5.67;;;;;;;;;;5047682;28;20060;-70
2021/06/17 05:59:48;;;;;;;8.00;6.30;;;;;;;;;;5068219;28;20025;-72
2021/06/17 06:02:15;;;;;;;9.82;6.50;;;;;;;;;;5042872;28;20667;-72
2021/06/17 06:04:41;;;;;;;9.73;6.07;;;;;;;;;;5039694;28;20126;-71
2021/06/17 06:07:07;;;;;;;9.47;6.80;;;;;;;;;;5043517;28;20025;-72
2021/06/17 06:09:33;;;;;;;8.13;5.90;;;;;;;;;;5039451;28;20060;-71
2021/06/17 06:11:59;;;;;;;7.83;5.67;;;;;;;;;;5028740;28;20024;-71
2021/06/17 06:14:25;;;;;;;8.43;5.67;;;;;;;;;;5049662;28;20456;-70
2021/06/17 06:16:51;;;;;;;8.10;6.13;;;;;;;;;;5049831;28;20097;-73
2021/06/17 06:19:18;;;;;;;9.40;5.93;;;;;;;;;;5050455;28;20017;-71
2021/06/17 06:21:44;;;;;;;10.18;5.93;;;;;;;;;;5050080;28;20023;-72
2021/06/17 06:24:13;;;;;;;13.27;6.80;;;;;;;;;;5050350;28;20025;-72
2021/06/17 06:26:39;;;;;;;12.88;6.72;;;;;;;;;;5049091;28;20100;-72
2021/06/17 06:29:05;;;;;;;9.40;6.57;;;;;;;;;;5048218;28;20028;-73
2021/06/17 06:31:31;;;;;;;9.73;6.30;;;;;;;;;;5050117;28;20025;-73
2021/06/17 06:33:57;;;;;;;12.23;6.20;;;;;;;;;;5050523;28;20033;-72
2021/06/17 06:36:25;;;;;;;12.55;6.68;;;;;;;;;;5055630;28;20028;-71
2021/06/17 06:38:51;;;;;;;9.65;6.55;;;;;;;;;;5051050;28;20021;-72
2021/06/17 06:41:17;;;;;;;7.47;6.68;;;;;;;;;;5052738;28;20049;-71
2021/06/17 06:43:43;;;;;;;10.38;7.03;;;;;;;;;;5051224;28;20033;-71
2021/06/17 06:46:09;;;;;;;10.77;6.87;;;;;;;;;;5047849;28;20040;-73
2021/06/17 06:48:35;;;;;;;9.95;6.93;;;;;;;;;;5050287;28;20076;-71
2021/06/17 06:51:01;;;;;;;9.13;6.60;;;;;;;;;;5047543;28;20426;-73
2021/06/17 06:53:28;;;;;;;13.27;6.47;;;;;;;;;;5051130;28;20033;-71
2021/06/17 06:55:54;;;;;;;7.13;6.13;;;;;;;;;;5049923;28;20025;-72
2021/06/17 06:58:20;;;;;;;7.67;5.87;;;;;;;;;;5045440;28;20049;-72
2021/06/17 07:00:46;;;;;;;8.15;6.10;;;;;;;;;;4000250;28;10001099;-73
2021/06/17 07:03:12;;;;;;;6.47;5.88;;;;;;;;;;5041487;28;20095;-74
2021/06/17 07:05:38;;;;;;;9.05;5.57;;;;;;;;;;5041334;28;20029;-73
2021/06/17 07:08:09;;;;;;;8.50;5.23;;;;;;;;;;5039174;28;20021;-71
2021/06/17 07:10:36;;;;;;;6.00;4.97;;;;;;;;;;5039641;28;20300;-72
2021/06/17 07:13:02;;;;;;;7.47;5.15;;;;;;;;;;5037822;28;20086;-72
2021/06/17 07:15:28;;;;;;;8.57;5.45;;;;;;;;;;5049351;28;20104;-75
2021/06/17 07:17:54;;;;;;;7.47;5.00;;;;;;;;;;5063766;28;20024;-75
2021/06/17 07:20:20;;;;;;;8.80;4.77;;;;;;;;;;5050877;28;20412;-74
2021/06/17 07:22:46;;;;;;;8.40;4.80;;;;;;;;;;5050710;28;20100;-73
2021/06/17 07:25:13;;;;;;;8.63;4.67;;;;;;;;;;5058600;28;20063;-71
2021/06/17 07:27:39;;;;;;;5.85;5.10;;;;;;;;;;5055268;28;20026;-73
2021/06/17 07:30:06;;;;;;;8.02;4.53;;;;;;;;;;5054476;28;20047;-74
2021/06/17 07:32:31;;;;;;;;;;;;;;;;;;5052780;28;20048;-71
2021/06/17 07:34:58;;;;;;;8.25;3.97;;;;;;;;;;5056535;28;19952;-74
2021/06/17 07:37:24;;;;;;;6.30;4.50;;;;;;;;;;5057180;28;20079;-71
2021/06/17 07:39:50;;;;;;;6.60;3.80;;;;;;;;;;5047912;28;20072;-71
2021/06/17 07:42:16;;;;;;;4.80;3.90;;;;;;;;;;5076796;28;20474;-72
2021/06/17 07:44:42;;;;;;;5.60;4.00;;;;;;;;;;5048164;28;20042;-72
2021/06/17 07:47:08;;;;;;;4.65;3.58;;;;;;;;;;5045710;28;20017;-72
2021/06/17 07:49:36;;;;;;;7.15;4.20;;;;;;;;;;5042006;28;20056;-71
2021/06/17 07:52:02;;;;;;;4.10;3.70;;;;;;;;;;5052133;28;20099;-75
2021/06/17 07:54:28;;;;;;;5.93;4.03;;;;;;;;;;5050581;28;20037;-74
2021/06/17 07:56:57;;;;;;;4.88;3.72;;;;;;;;;;5059194;28;20040;-73
2021/06/17 07:59:23;;;;;;;5.40;3.88;;;;;;;;;;5063597;28;20154;-74
2021/06/17 08:01:50;;;;;;;4.88;3.83;;;;;;;;;;5048408;28;20033;-71
2021/06/17 08:04:17;;;;;;;5.10;3.85;;;;;;;;;;5047959;28;20021;-76
2021/06/17 08:06:43;;;;;;;7.53;4.20;;;;;;;;;;5053631;28;20701;-78
2021/06/17 08:09:09;;;;;;;5.45;3.55;;;;;;;;;;5049279;28;20025;-73
2021/06/17 08:11:37;;;;;;;6.40;4.10;;;;;;;;;;5050173;28;20541;-78
2021/06/17 08:14:03;;;;;;;9.02;4.10;;;;;;;;;;5050230;28;20048;-81
2021/06/17 08:16:29;;;;;;;4.97;4.00;;;;;;;;;;5055964;28;20027;-78
2021/06/17 08:18:55;;;;;;;3.90;3.60;;;;;;;;;;5058381;28;20051;-77
2021/06/17 08:21:22;;;;;;;8.38;4.15;;;;;;;;;;5051930;28;20025;-82
2021/06/17 08:23:49;;;;;;;6.28;4.30;;;;;;;;;;5048340;28;20044;-74
2021/06/17 08:26:15;;;;;;;5.70;4.30;;;;;;;;;;5040617;28;20040;-75
2021/06/17 08:28:41;;;;;;;4.93;3.72;;;;;;;;;;5049682;28;20022;-78
2021/06/17 08:31:08;;;;;;;7.57;4.15;;;;;;;;;;5053228;28;20032;-74
2021/06/17 08:33:36;;;;;;;6.78;4.28;;;;;;;;;;5064530;28;20393;-72
2021/06/17 08:36:05;;;;;;;5.15;4.20;;;;;;;;;;5050297;28;20039;-73
2021/06/17 08:38:31;;;;;;;5.35;3.70;;;;;;;;;;5053445;28;20075;-73
2021/06/17 08:40:57;;;;;;;7.95;4.28;;;;;;;;;;5049320;28;20187;-74
2021/06/17 08:43:23;;;;;;;4.45;3.65;;;;;;;;;;5047482;28;20724;-77
2021/06/17 08:45:49;;;;;;;6.82;3.70;;;;;;;;;;5045385;28;20417;-78
2021/06/17 08:48:15;;;;;;;8.38;3.92;;;;;;;;;;5045771;28;20104;-77
2021/06/17 08:50:41;;;;;;;6.25;4.18;;;;;;;;;;5042406;28;20034;-77
2021/06/17 08:53:07;;;;;;;6.68;3.70;;;;;;;;;;5045467;28;20033;-75
2021/06/17 08:55:36;;;;;;;5.03;3.90;;;;;;;;;;5039601;28;20029;-75
2021/06/17 08:58:03;;;;;;;6.63;3.78;;;;;;;;;;5037781;28;20482;-77
2021/06/17 09:00:34;;;;;;;6.40;4.32;;;;;;;;;;5050002;28;20551;-77
2021/06/17 09:03:07;;;;;;;5.53;4.25;;;;;;;;;;5042590;28;20027;-79
2021/06/17 09:05:36;;;;;;;6.70;4.30;;;;;;;;;;5051398;28;20052;-75
2021/06/17 09:08:05;;;;;;;6.75;3.95;;;;;;;;;;5032690;28;20021;-80
2021/06/17 09:10:32;;;;;;;8.68;4.10;;;;;;;;;;5044353;28;20494;-72
2021/06/17 09:12:59;;;;;;;5.82;4.13;;;;;;;;;;5045305;28;20029;-77
2021/06/17 09:15:33;;;;;;;6.47;3.75;;;;;;;;;;5050671;28;20028;-78
2021/06/17 09:18:08;;;;;;;5.90;3.92;;;;;;;;;;5057628;28;20024;-78
2021/06/17 09:20:35;;;;;;;10.67;4.13;;;;;;;;;;5053618;28;20481;-79
2021/06/17 09:23:01;;;;;;;;;;;;;;;;;;5054835;28;20024;-78
2021/06/17 09:25:27;;;;;;;;;;;;;;;;;;5051435;28;20392;-78
2021/06/17 09:27:59;;;;;;;5.18;3.80;;;;;;;;;;5051603;28;19931;-80
2021/06/17 09:30:27;;;;;;;5.60;4.00;;;;;;;;;;5054340;28;20031;-76
2021/06/17 09:32:58;;;;;;;5.97;4.32;;;;;;;;;;5049568;28;20028;-77
2021/06/17 09:35:26;;;;;;;5.65;4.10;;;;;;;;;;5051579;28;20017;-79
2021/06/17 09:38:10;;;;;;;7.15;4.32;;;;;;;;;;5054133;28;20024;-80
2021/06/17 09:40:50;;;;;;;5.65;4.13;;;;;;;;;;5052370;28;20052;-77
2021/06/17 09:43:34;;;;;;;5.63;3.83;;;;;;;;;;5051037;28;20029;-80
2021/06/17 09:46:06;;;;;;;5.80;4.28;;;;;;;;;;5050360;28;20045;-76
2021/06/17 09:48:38;;;;;;;4.47;4.03;;;;;;;;;;5051984;28;20394;-78
2021/06/17 09:51:23;;;;;;;4.40;3.85;;;;;;;;;;5058231;28;20482;-76
2021/06/17 09:53:50;;;;;;;5.80;3.87;;;;;;;;;;5050241;28;20361;-78
2021/06/17 09:56:17;;;;;;;4.70;4.10;;;;;;;;;;5055644;28;20029;-76
2021/06/17 09:58:45;;;;;;;4.38;3.97;;;;;;;;;;5052319;28;20025;-80
2021/06/17 10:01:16;;;;;;;5.50;3.70;;;;;;;;;;5051205;28;20031;-79
2021/06/17 10:03:42;;;;;;;5.80;3.58;;;;;;;;;;5054312;28;20100;-78
2021/06/17 10:06:08;;;;;;;;;;;;;;;;;;5035783;28;20594;-79
2021/06/17 10:08:34;;;;;;;;;;;;;;;;;;5031916;28;19992;-78
2021/06/17 10:11:00;;;;;;;;;;;;;;;;;;5051989;28;19908;-79
2021/06/17 10:13:26;;;;;;;;;;;;;;;;;;5050152;28;20034;-81
2021/06/17 10:15:53;;;;;;;6.53;4.15;;;;;;;;;;5051065;28;20389;-79
2021/06/17 10:18:19;;;;;;;4.80;3.92;;;;;;;;;;5051372;28;20035;-77
2021/06/17 10:20:49;;;;;;;6.18;4.07;;;;;;;;;;5050540;28;20400;-80
2021/06/17 10:23:15;;;;;;;5.03;3.95;;;;;;;;;;5043533;28;20052;-78
2021/06/17 10:25:43;;;;;;;;;;;;;;;;;;5040353;28;20111;-80
2021/06/17 10:28:09;;;;;;;6.35;4.13;;;;;;;;;;5034744;28;20381;-78
2021/06/17 10:30:35;;;;;;;;;;;;;;;;;;5040393;28;20153;-81
2021/06/17 10:33:01;;;;;;;5.05;4.05;;;;;;;;;;5033826;28;19997;-79
2021/06/17 10:35:30;;;;;;;6.55;4.30;;;;;;;;;;5050218;28;20153;-80
2021/06/17 10:37:59;;;;;;;6.47;4.20;;;;;;;;;;5053093;28;20033;-77
2021/06/17 10:40:28;;;;;;;6.45;4.10;;;;;;;;;;5050643;28;20136;-81
2021/06/17 10:42:55;;;;;;;5.85;4.40;;;;;;;;;;5050829;28;20538;-76
2021/06/17 10:45:45;;;;;;;5.22;4.82;;;;;;;;;;5031750;28;20013;-77
2021/06/17 10:48:12;;;;;;;5.20;4.70;;;;;;;;;;5051199;28;20033;-78
2021/06/17 10:50:42;;;;;;;5.82;4.97;;;;;;;;;;5051162;28;20025;-79
2021/06/17 10:53:17;;;;;;;6.53;5.32;;;;;;;;;;5043095;28;20104;-78
2021/06/17 10:56:01;;;;;;;9.10;5.47;;;;;;;;;;5030824;28;20021;-80
2021/06/17 10:58:45;;;;;;;9.20;5.40;;;;;;;;;;5033491;28;20029;-78
2021/06/17 11:01:22;;;;;;;6.60;5.65;;;;;;;;;;5043687;28;20025;-76
2021/06/17 11:03:58;;;;;;;7.65;5.40;;;;;;;;;;5054807;28;20017;-78
2021/06/17 11:06:24;;;;;;;7.07;5.75;;;;;;;;;;5048265;28;20029;-77
2021/06/17 11:08:50;;;;;;;9.15;5.57;;;;;;;;;;5052585;28;20029;-78
2021/06/17 11:11:30;;;;;;;7.53;5.30;;;;;;;;;;5041412;28;20500;-77
2021/06/17 11:13:56;;;;;;;7.95;5.60;;;;;;;;;;5045497;28;20038;-78
2021/06/17 11:16:22;;;;;;;6.47;5.43;;;;;;;;;;4346010;28;10000854;-76
2021/06/17 11:21:26;;;;;;;8.32;5.82;;;;;;;;;;5049865;28;20124;-77
2021/06/17 11:23:52;;;;;;;7.72;5.78;;;;;;;;;;5047169;28;20447;-79
2021/06/17 11:26:37;;;;;;;8.45;6.20;;;;;;;;;;5048638;28;20057;-80
2021/06/17 11:29:04;;;;;;;6.77;6.07;;;;;;;;;;5047839;28;20389;-79
2021/06/17 11:31:40;;;;;;;9.25;6.07;;;;;;;;;;5048001;28;20025;-78
2021/06/17 11:34:09;;;;;;;7.10;6.28;;;;;;;;;;5047969;28;20052;-78
2021/06/17 11:36:35;;;;;;;7.30;6.25;;;;;;;;;;5047243;28;20044;-79
2021/06/17 11:39:02;;;;;;;7.75;6.65;;;;;;;;;;5048103;28;20040;-79
2021/06/17 11:41:30;;;;;;;8.65;6.20;;;;;;;;;;5047061;28;20041;-80
2021/06/17 11:43:59;;;;;;;7.60;6.30;;;;;;;;;;5049436;28;20017;-81
2021/06/17 11:46:30;;;;;;;9.15;6.38;;;;;;;;;;5048147;28;20790;-79
2021/06/17 11:49:00;;;;;;;7.43;6.78;;;;;;;;;;5048067;28;20108;-79
2021/06/17 11:51:26;;;;;;;8.55;6.28;;;;;;;;;;5047714;28;20029;-79
2021/06/17 11:53:53;;;;;;;7.88;6.35;;;;;;;;;;5048498;28;20145;-79
2021/06/17 11:56:23;;;;;;;12.10;6.55;;;;;;;;;;5045892;28;20089;-79
2021/06/17 11:58:49;;;;;;;7.35;5.82;;;;;;;;;;5050877;28;20021;-77
2021/06/17 12:01:16;;;;;;;7.35;6.03;;;;;;;;;;5048965;28;20386;-78
2021/06/17 12:03:52;;;;;;;6.72;6.05;;;;;;;;;;5049344;28;20017;-77
2021/06/17 12:06:18;;;;;;;7.45;6.00;;;;;;;;;;5049115;28;20043;-79
2021/06/17 12:08:44;;;;;;;;;;;;;;;;;;5047186;28;20056;-79
2021/06/17 12:11:21;;;;;;;7.38;6.22;;;;;;;;;;5047074;28;19991;-78
2021/06/17 12:13:50;;;;;;;7.05;6.40;;;;;;;;;;5049317;28;20040;-78
2021/06/17 12:16:20;;;;;;;7.00;6.40;;;;;;;;;;5048186;28;20100;-79
2021/06/17 12:18:46;;;;;;;8.13;6.00;;;;;;;;;;5046055;28;20037;-79
2021/06/17 12:21:21;;;;;;;10.95;6.68;;;;;;;;;;5048580;28;20504;-76
2021/06/17 12:23:47;;;;;;;12.63;6.22;;;;;;;;;;5044540;28;20377;-77
2021/06/17 12:26:14;;;;;;;6.95;6.32;;;;;;;;;;5046955;28;20497;-78
2021/06/17 12:28:51;;;;;;;8.38;5.57;;;;;;;;;;5047851;28;20024;-78
2021/06/17 12:31:32;;;;;;;8.07;6.55;;;;;;;;;;5046875;28;20017;-79
2021/06/17 12:34:05;;;;;;;7.30;6.47;;;;;;;;;;5048143;28;20493;-76
2021/06/17 12:36:31;;;;;;;7.10;6.22;;;;;;;;;;5047506;28;20175;-80
2021/06/17 12:39:07;;;;;;;7.03;6.32;;;;;;;;;;5046390;28;20465;-78
2021/06/17 12:41:39;;;;;;;8.10;6.43;;;;;;;;;;5046030;28;20037;-78
2021/06/17 12:44:05;;;;;;;7.32;6.70;;;;;;;;;;5047777;28;20032;-77
2021/06/17 12:46:36;;;;;;;9.00;6.97;;;;;;;;;;5046583;28;20393;-80
2021/06/17 12:54:22;;;;;;;7.90;6.53;;;;;;;;;;5046233;28;20092;-80
2021/06/17 12:57:08;;;;;;;7.90;6.53;;;;;;;;;;5046033;28;20551;-78
2021/06/17 12:59:39;;;;;;;6.70;6.07;;;;;;;;;;5044082;28;20124;-79
2021/06/17 13:02:05;;;;;;;8.57;6.90;;;;;;;;;;5045554;28;20092;-80
2021/06/17 13:04:32;;;;;;;11.63;7.50;;;;;;;;;;5046182;28;20036;-78
2021/06/17 13:06:59;;;;;;;7.85;7.05;;;;;;;;;;5045641;28;20111;-78
2021/06/17 13:09:30;;;;;;;8.70;6.82;;;;;;;;;;5046645;28;20029;-78
2021/06/17 13:12:16;;;;;;;8.85;6.80;;;;;;;;;;5045104;28;20049;-78
2021/06/17 13:14:59;;;;;;;10.85;6.70;;;;;;;;;;5045744;28;20071;-78
2021/06/17 13:17:25;;;;;;;10.10;6.75;;;;;;;;;;5043666;28;20503;-81
2021/06/17 13:19:52;;;;;;;8.35;6.65;;;;;;;;;;5046466;28;20355;-78
2021/06/17 13:22:20;;;;;;;8.88;7.18;;;;;;;;;;5047085;28;20033;-79
2021/06/17 13:24:47;;;;;;;9.30;7.32;;;;;;;;;;5049039;28;20036;-77
2021/06/17 13:27:17;;;;;;;7.47;6.72;;;;;;;;;;5047860;28;20056;-80
2021/06/17 13:29:56;;;;;;;8.90;6.88;;;;;;;;;;5045288;28;20028;-82
2021/06/17 13:32:22;;;;;;;7.90;6.43;;;;;;;;;;5046162;28;20143;-80
2021/06/17 13:34:48;;;;;;;;;;;;;;;;;;5045924;28;20078;-79
2021/06/17 13:37:14;;;;;;;7.75;6.72;;;;;;;;;;5046029;28;19947;-78
2021/06/17 13:39:40;;;;;;;6.85;6.25;;;;;;;;;;5043283;28;20041;-80
2021/06/17 13:42:07;;;;;;;7.20;6.53;;;;;;;;;;5046253;28;20021;-79
2021/06/17 13:44:34;;;;;;;8.57;6.45;;;;;;;;;;5047354;28;20455;-76
2021/06/17 13:47:01;;;;;;;8.50;6.80;;;;;;;;;;5046139;28;20070;-77
2021/06/17 13:49:27;;;;;;;7.05;6.07;;;;;;;;;;5047780;28;20100;-78
2021/06/17 13:51:56;;;;;;;6.35;5.72;;;;;;;;;;5045682;28;20028;-78
2021/06/17 13:54:22;;;;;;;11.32;6.53;;;;;;;;;;5043535;28;20020;-78
2021/06/17 13:56:51;;;;;;;7.55;5.68;;;;;;;;;;5046344;28;20020;-77
2021/06/17 13:59:18;;;;;;;8.45;6.00;;;;;;;;;;5044604;28;20025;-80
2021/06/17 14:01:44;;;;;;;8.52;6.35;;;;;;;;;;5045086;28;20478;-77
2021/06/17 14:04:16;;;;;;;7.07;6.38;;;;;;;;;;5046838;28;20071;-81
2021/06/17 14:06:42;;;;;;;9.93;6.25;;;;;;;;;;5046802;28;20382;-79
2021/06/17 14:09:08;;;;;;;7.18;6.13;;;;;;;;;;5046790;28;20032;-78
2021/06/17 14:11:34;;;;;;;9.07;5.55;;;;;;;;;;5045943;28;20049;-79
2021/06/17 14:14:00;;;;;;;6.47;5.80;;;;;;;;;;5044974;28;20474;-79
2021/06/17 14:16:26;;;;;;;7.55;6.57;;;;;;;;;;5042137;28;20040;-78
2021/06/17 14:18:52;;;;;;;7.13;6.45;;;;;;;;;;5043049;28;20398;-78
2021/06/17 14:21:18;;;;;;;12.57;6.47;;;;;;;;;;5043685;28;20695;-78
2021/06/17 14:23:44;;;;;;;6.97;6.32;;;;;;;;;;5044858;28;20032;-80
2021/06/17 14:26:10;;;;;;;7.75;6.22;;;;;;;;;;5045189;28;20029;-74
2021/06/17 14:28:36;;;;;;;6.65;6.07;;;;;;;;;;5045979;28;20021;-70
2021/06/17 14:31:02;;;;;;;7.72;6.03;;;;;;;;;;5045817;28;20036;-74
2021/06/17 14:33:29;;;;;;;9.70;6.30;;;;;;;;;;5045541;28;20025;-74
2021/06/17 14:35:57;;;;;;;7.60;6.80;;;;;;;;;;5045244;28;20473;-72
2021/06/17 14:38:24;;;;;;;7.07;6.35;;;;;;;;;;5044159;28;20025;-74
2021/06/17 14:40:52;;;;;;;11.43;6.53;;;;;;;;;;5044663;28;20056;-76
2021/06/17 14:43:18;;;;;;;7.35;6.60;;;;;;;;;;5040258;28;20049;-73
2021/06/17 14:45:44;;;;;;;7.82;6.10;;;;;;;;;;5043067;28;20624;-72
2021/06/17 14:48:10;;;;;;;9.40;6.60;;;;;;;;;;5044697;28;20140;-73
2021/06/17 14:50:37;;;;;;;7.60;6.43;;;;;;;;;;5041800;28;20025;-75
2021/06/17 14:53:03;;;;;;;;;;;;;;;;;;5045391;28;20021;-77
2021/06/17 14:55:31;;;;;;;10.30;6.55;;;;;;;;;;5044065;28;19923;-75
2021/06/17 14:57:58;;;;;;;9.80;7.25;;;;;;;;;;5046978;28;20094;-80
2021/06/17 15:00:28;;;;;;;8.45;6.57;;;;;;;;;;5042503;28;20025;-83
2021/06/17 15:02:54;;;;;;;8.88;6.55;;;;;;;;;;5041385;28;20122;-80